Time;durP1;ratioP1;P1;durP2;ratioP2;P2;SDS_P1;SDS_P2;PMS_P1;PMS_P2;Temp;Humidity;BMP_temperature;BMP_pressure;BME280_temperature;BME280_humidity;BME280_pressure;Samples;Min_cycle;Max_cycle;Signal;HPM_P1;HPM_P2
2021/07/23 00:00:31;;;;;;;10.00;7.87;;;17.80;99.90;;;;;;5073818;28;20467;-85
2021/07/23 00:02:58;;;;;;;12.17;8.17;;;17.80;99.90;;;;;;5073804;28;20460;-85
2021/07/23 00:05:24;;;;;;;9.73;7.93;;;17.80;99.90;;;;;;5073797;28;20455;-86
2021/07/23 00:07:51;;;;;;;12.93;9.37;;;17.80;99.90;;;;;;5073697;28;20484;-85
2021/07/23 00:10:18;;;;;;;11.20;8.80;;;17.80;99.90;;;;;;5074069;28;20468;-85
2021/07/23 00:12:46;;;;;;;12.73;8.10;;;17.70;99.90;;;;;;5073823;28;20445;-85
2021/07/23 00:15:13;;;;;;;12.47;7.97;;;17.70;99.90;;;;;;5073793;28;20460;-85
2021/07/23 00:17:40;;;;;;;11.90;8.57;;;17.70;99.90;;;;;;5073279;28;20947;-85
2021/07/23 00:20:08;;;;;;;11.67;8.63;;;17.70;99.90;;;;;;5073552;28;20468;-85
2021/07/23 00:22:35;;;;;;;9.23;7.53;;;17.70;99.90;;;;;;5073544;28;20445;-85
2021/07/23 00:25:02;;;;;;;11.33;7.80;;;17.70;99.90;;;;;;5073535;28;20811;-85
2021/07/23 00:27:29;;;;;;;11.10;7.87;;;17.70;99.90;;;;;;5073685;28;20817;-85
2021/07/23 00:29:57;;;;;;;12.80;8.43;;;17.60;99.90;;;;;;5073112;28;20861;-85
2021/07/23 00:32:23;;;;;;;11.70;7.93;;;17.60;99.90;;;;;;5073255;28;20932;-85
2021/07/23 00:34:50;;;;;;;14.03;8.40;;;17.60;99.90;;;;;;5073468;28;20456;-85
2021/07/23 00:37:17;;;;;;;11.67;8.33;;;17.60;99.90;;;;;;5073589;28;20452;-85
2021/07/23 00:39:44;;;;;;;11.50;7.50;;;17.50;99.90;;;;;;5073496;28;20467;-85
2021/07/23 00:42:10;;;;;;;8.63;7.40;;;17.50;99.90;;;;;;5073536;28;20456;-86
2021/07/23 00:44:38;;;;;;;9.90;7.27;;;17.50;99.90;;;;;;5073596;28;20475;-86
2021/07/23 00:47:06;;;;;;;12.70;7.10;;;17.50;99.90;;;;;;5073494;28;20480;-85
2021/07/23 00:49:33;;;;;;;12.17;8.30;;;17.40;99.90;;;;;;5073167;28;20487;-85
2021/07/23 00:52:00;;;;;;;12.47;7.97;;;17.40;99.90;;;;;;5073368;28;20445;-86
2021/07/23 00:54:27;;;;;;;8.90;7.80;;;17.40;99.90;;;;;;5073472;28;20448;-86
2021/07/23 00:56:54;;;;;;;11.13;7.80;;;17.40;99.90;;;;;;5073618;28;20463;-85
2021/07/23 00:59:21;;;;;;;10.73;8.03;;;17.30;99.90;;;;;;5077308;28;20465;-85
2021/07/23 01:01:49;;;;;;;10.23;7.70;;;17.30;99.90;;;;;;5077499;28;20459;-86
2021/07/23 01:04:19;;;;;;;10.77;7.50;;;17.30;99.90;;;;;;5077042;28;20932;-86
2021/07/23 01:06:46;;;;;;;14.53;8.50;;;17.30;99.90;;;;;;5076991;28;20961;-85
2021/07/23 01:09:12;;;;;;;11.50;8.50;;;17.30;99.90;;;;;;5077150;28;20851;-85
2021/07/23 01:11:39;;;;;;;11.53;7.87;;;17.20;99.90;;;;;;5077111;28;20451;-85
2021/07/23 01:14:07;;;;;;;10.10;7.47;;;17.20;99.90;;;;;;5077222;28;20452;-85
2021/07/23 01:16:33;;;;;;;11.57;8.97;;;17.20;99.90;;;;;;5077116;28;20452;-85
2021/07/23 01:19:02;;;;;;;11.87;7.87;;;17.20;99.90;;;;;;5076701;28;20444;-85
2021/07/23 01:21:30;;;;;;;11.70;8.40;;;17.20;99.90;;;;;;5076858;28;20453;-85
2021/07/23 01:23:59;;;;;;;12.37;7.63;;;17.20;99.90;;;;;;5076626;28;20948;-85
2021/07/23 01:26:26;;;;;;;10.50;8.40;;;17.20;99.90;;;;;;5076896;28;20456;-85
2021/07/23 01:28:53;;;;;;;10.73;8.10;;;17.10;99.90;;;;;;5076413;28;20492;-85
2021/07/23 01:31:20;;;;;;;10.40;7.87;;;17.10;99.90;;;;;;5077034;28;20440;-85
2021/07/23 01:33:47;;;;;;;12.03;9.10;;;17.10;99.90;;;;;;5076677;28;20467;-85
2021/07/23 01:36:13;;;;;;;9.83;8.60;;;17.10;99.90;;;;;;5076288;28;20955;-85
2021/07/23 01:38:42;;;;;;;9.93;7.67;;;17.10;99.90;;;;;;5076637;28;20452;-85
2021/07/23 01:41:11;;;;;;;13.03;8.00;;;17.10;99.90;;;;;;5076643;28;20452;-85
2021/07/23 01:43:38;;;;;;;10.37;7.67;;;17.10;99.90;;;;;;5076532;28;20451;-85
2021/07/23 01:46:05;;;;;;;9.40;7.50;;;17.10;99.90;;;;;;5076450;28;20449;-85
2021/07/23 01:48:32;;;;;;;10.27;7.47;;;17.10;99.90;;;;;;5077174;28;20488;-85
2021/07/23 01:50:59;;;;;;;10.90;7.80;;;17.10;99.90;;;;;;5076309;28;20821;-86
2021/07/23 01:53:25;;;;;;;11.03;7.93;;;17.00;99.90;;;;;;5076504;28;20448;-86
2021/07/23 01:55:52;;;;;;;10.30;7.60;;;17.10;99.90;;;;;;5076495;28;20448;-85
2021/07/23 01:58:20;;;;;;;10.37;7.37;;;17.10;99.90;;;;;;5076031;28;20429;-85
2021/07/23 02:00:47;;;;;;;9.70;7.17;;;17.10;99.90;;;;;;5076028;28;20476;-86
2021/07/23 02:03:14;;;;;;;10.30;7.17;;;17.10;99.90;;;;;;5075959;28;20936;-85
2021/07/23 02:05:40;;;;;;;10.50;7.47;;;17.10;99.90;;;;;;5076437;28;20445;-85
2021/07/23 02:08:07;;;;;;;12.33;8.90;;;17.10;99.90;;;;;;5076006;28;20539;-85
2021/07/23 02:10:34;;;;;;;11.77;7.63;;;17.00;99.90;;;;;;5075614;28;20488;-86
2021/07/23 02:13:01;;;;;;;9.30;7.33;;;17.00;99.90;;;;;;5076005;28;20449;-85
2021/07/23 02:15:29;;;;;;;9.80;7.70;;;16.90;99.90;;;;;;5076031;28;20498;-86
2021/07/23 02:17:56;;;;;;;9.40;7.50;;;16.90;99.90;;;;;;5076201;28;20822;-86
2021/07/23 02:20:22;;;;;;;9.30;6.67;;;16.90;99.90;;;;;;5075568;28;20472;-85
2021/07/23 02:22:49;;;;;;;10.07;7.70;;;16.90;99.90;;;;;;5076047;28;21001;-86
2021/07/23 02:25:16;;;;;;;8.97;7.20;;;17.00;99.90;;;;;;5075492;28;20940;-85
2021/07/23 02:27:43;;;;;;;9.43;7.37;;;17.00;99.90;;;;;;5075486;28;20823;-85
2021/07/23 02:30:11;;;;;;;12.07;8.33;;;16.90;99.90;;;;;;5075334;28;20885;-85
2021/07/23 02:32:39;;;;;;;8.13;6.30;;;16.90;99.90;;;;;;5075616;28;20453;-86
2021/07/23 02:35:06;;;;;;;10.03;7.63;;;16.90;99.90;;;;;;5075568;28;20448;-85
2021/07/23 02:37:33;;;;;;;9.40;7.70;;;16.80;99.90;;;;;;5075531;28;20811;-86
2021/07/23 02:40:00;;;;;;;14.10;8.23;;;16.80;99.90;;;;;;5075371;28;20461;-85
2021/07/23 02:42:27;;;;;;;9.60;6.77;;;16.70;99.90;;;;;;5075275;28;20467;-85
2021/07/23 02:44:54;;;;;;;10.60;7.17;;;16.70;99.90;;;;;;5075181;28;20834;-84
2021/07/23 02:47:20;;;;;;;10.70;7.40;;;16.70;99.90;;;;;;5075117;28;20456;-85
2021/07/23 02:49:48;;;;;;;11.00;7.57;;;16.70;99.90;;;;;;5075003;28;20493;-85
2021/07/23 02:52:15;;;;;;;9.20;7.20;;;16.60;99.90;;;;;;5075055;28;20472;-84
2021/07/23 02:54:42;;;;;;;11.37;7.93;;;16.60;99.90;;;;;;5075063;28;20471;-85
2021/07/23 02:57:09;;;;;;;10.57;7.17;;;16.60;99.90;;;;;;5074939;28;20954;-85
2021/07/23 02:59:35;;;;;;;10.17;7.20;;;16.60;99.90;;;;;;5074528;28;20479;-85
2021/07/23 03:02:02;;;;;;;9.10;7.57;;;16.60;99.90;;;;;;5075613;28;20452;-84
2021/07/23 03:04:29;;;;;;;11.57;7.57;;;16.60;99.90;;;;;;5074546;28;20979;-84
2021/07/23 03:06:57;;;;;;;10.97;7.80;;;16.50;99.90;;;;;;5074825;28;20445;-84
2021/07/23 03:09:24;;;;;;;10.60;7.60;;;16.50;99.90;;;;;;5074273;28;20496;-85
2021/07/23 03:11:51;;;;;;;8.90;7.10;;;16.40;99.90;;;;;;5074391;28;20881;-85
2021/07/23 03:14:18;;;;;;;10.60;7.10;;;16.40;99.90;;;;;;5074649;28;20453;-85
2021/07/23 03:16:45;;;;;;;9.80;7.27;;;16.30;99.90;;;;;;5074821;28;20814;-84
2021/07/23 03:19:12;;;;;;;10.80;8.33;;;16.30;99.90;;;;;;5074460;28;20457;-84
2021/07/23 03:21:38;;;;;;;13.90;7.77;;;16.30;99.90;;;;;;5073159;28;20457;-85
2021/07/23 03:24:07;;;;;;;9.77;6.70;;;16.20;99.90;;;;;;5074732;28;20449;-85
2021/07/23 03:26:33;;;;;;;9.00;7.57;;;16.20;99.90;;;;;;5074304;28;20457;-84
2021/07/23 03:29:02;;;;;;;8.80;7.50;;;16.20;99.90;;;;;;5074153;28;20572;-85
2021/07/23 03:31:30;;;;;;;15.80;7.60;;;16.20;99.90;;;;;;5073983;28;20940;-85
2021/07/23 03:33:57;;;;;;;11.03;7.33;;;16.20;99.90;;;;;;5074236;28;20449;-84
2021/07/23 03:36:24;;;;;;;10.33;7.73;;;16.10;99.90;;;;;;5074224;28;20449;-84
2021/07/23 03:38:51;;;;;;;12.17;7.90;;;16.10;99.90;;;;;;5074134;28;20456;-84
2021/07/23 03:41:19;;;;;;;10.63;7.80;;;16.10;99.90;;;;;;5074233;28;20444;-85
2021/07/23 03:43:46;;;;;;;8.90;7.03;;;16.10;99.90;;;;;;5074016;28;20547;-84
2021/07/23 03:46:12;;;;;;;10.40;7.80;;;16.00;99.90;;;;;;5073974;28;20452;-84
2021/07/23 03:48:39;;;;;;;13.07;8.10;;;16.00;99.90;;;;;;5073971;28;20449;-84
2021/07/23 03:51:06;;;;;;;11.80;7.23;;;16.00;99.90;;;;;;5073783;28;20511;-84
2021/07/23 03:53:33;;;;;;;10.20;7.30;;;16.00;99.90;;;;;;5073908;28;20472;-84
2021/07/23 03:56:04;;;;;;;12.47;8.67;;;16.00;99.90;;;;;;5074086;28;20444;-84
2021/07/23 03:58:32;;;;;;;10.03;7.53;;;15.90;99.90;;;;;;5074066;28;20444;-84
2021/07/23 04:00:59;;;;;;;13.63;7.70;;;15.90;99.90;;;;;;5073750;28;20460;-84
2021/07/23 04:03:26;;;;;;;10.90;7.60;;;15.90;99.90;;;;;;5074072;28;20445;-84
2021/07/23 04:05:52;;;;;;;9.07;7.47;;;15.90;99.90;;;;;;5073744;28;20448;-84
2021/07/23 04:08:19;;;;;;;10.77;6.77;;;15.80;99.90;;;;;;5073676;28;20456;-84
2021/07/23 04:10:46;;;;;;;10.37;7.93;;;15.80;99.90;;;;;;5073537;28;20488;-84
2021/07/23 04:13:12;;;;;;;7.47;6.40;;;15.80;99.90;;;;;;5073677;28;20447;-84
2021/07/23 04:15:40;;;;;;;9.30;7.17;;;15.80;99.90;;;;;;5073572;28;20812;-84
2021/07/23 04:18:07;;;;;;;11.10;7.70;;;15.80;99.90;;;;;;5073313;28;20959;-84
2021/07/23 04:20:35;;;;;;;7.70;6.63;;;15.80;99.90;;;;;;5073415;28;20456;-84
2021/07/23 04:23:01;;;;;;;10.37;7.10;;;15.80;99.90;;;;;;5073992;28;20445;-84
2021/07/23 04:25:28;;;;;;;10.03;7.50;;;15.80;99.90;;;;;;5073517;28;20444;-84
2021/07/23 04:27:55;;;;;;;10.03;7.30;;;15.80;99.90;;;;;;5073404;28;20832;-84
2021/07/23 04:30:22;;;;;;;10.57;7.17;;;15.90;99.90;;;;;;5072980;28;20497;-84
2021/07/23 04:32:50;;;;;;;10.20;7.27;;;15.90;99.90;;;;;;5072751;28;20449;-84
2021/07/23 04:35:16;;;;;;;10.70;7.77;;;15.90;99.90;;;;;;5073344;28;20453;-84
2021/07/23 04:37:43;;;;;;;9.77;7.20;;;15.90;99.90;;;;;;5073336;28;20452;-84
2021/07/23 04:40:10;;;;;;;9.83;6.60;;;16.00;99.90;;;;;;5072923;28;20461;-84
2021/07/23 04:42:37;;;;;;;11.27;8.00;;;16.00;99.90;;;;;;5072949;28;20445;-83
2021/07/23 04:45:05;;;;;;;10.90;8.27;;;16.00;99.90;;;;;;5073360;28;20452;-84
2021/07/23 04:47:31;;;;;;;10.67;7.87;;;16.10;99.90;;;;;;5072934;28;20445;-84
2021/07/23 04:50:00;;;;;;;9.47;7.47;;;16.10;99.90;;;;;;5072813;28;21006;-84
2021/07/23 04:52:27;;;;;;;9.77;6.90;;;16.20;99.90;;;;;;5073209;28;20454;-84
2021/07/23 04:54:56;;;;;;;7.50;6.13;;;16.20;99.90;;;;;;5072908;28;20958;-84
2021/07/23 04:57:27;;;;;;;10.00;7.50;;;16.30;99.90;;;;;;5073121;28;20449;-84
2021/07/23 04:59:53;;;;;;;11.50;7.67;;;16.30;99.90;;;;;;5073104;28;20530;-84
2021/07/23 05:02:20;;;;;;;10.20;7.13;;;16.30;99.90;;;;;;5073121;28;20448;-84
2021/07/23 05:04:47;;;;;;;10.37;7.30;;;16.40;99.90;;;;;;5072843;28;20433;-84
2021/07/23 05:07:15;;;;;;;8.73;7.00;;;16.40;99.90;;;;;;5073052;28;20449;-84
2021/07/23 05:09:42;;;;;;;13.07;8.00;;;16.50;99.90;;;;;;5072597;28;20991;-84
2021/07/23 05:12:09;;;;;;;15.87;8.20;;;16.50;99.90;;;;;;5073145;28;20449;-84
2021/07/23 05:14:35;;;;;;;9.10;7.47;;;16.50;99.90;;;;;;5073166;28;20453;-84
2021/07/23 05:17:02;;;;;;;12.43;7.27;;;16.60;99.90;;;;;;5072586;28;20956;-84
2021/07/23 05:19:29;;;;;;;10.60;8.10;;;16.60;99.90;;;;;;5072836;28;20464;-84
2021/07/23 05:21:56;;;;;;;10.70;7.53;;;16.70;99.90;;;;;;5072862;28;20452;-84
2021/07/23 05:24:24;;;;;;;12.17;8.40;;;16.70;99.90;;;;;;5072863;28;20815;-84
2021/07/23 05:26:51;;;;;;;10.17;7.80;;;16.70;99.90;;;;;;5072871;28;20445;-84
2021/07/23 05:29:17;;;;;;;12.13;8.23;;;16.80;99.90;;;;;;5072683;28;20496;-84
2021/07/23 05:31:44;;;;;;;11.10;7.60;;;16.80;99.90;;;;;;5072536;28;20971;-84
2021/07/23 05:34:11;;;;;;;10.83;7.73;;;16.90;99.90;;;;;;5072771;28;20441;-84
2021/07/23 05:36:38;;;;;;;11.27;8.20;;;16.90;99.90;;;;;;5072874;28;20451;-85
2021/07/23 05:39:04;;;;;;;9.23;7.57;;;17.00;99.90;;;;;;5072991;28;20472;-86
2021/07/23 05:41:32;;;;;;;13.73;8.47;;;17.00;99.90;;;;;;5073135;28;20444;-86
2021/07/23 05:43:59;;;;;;;10.03;7.27;;;17.10;99.90;;;;;;5073080;28;20456;-86
2021/07/23 05:46:27;;;;;;;14.10;8.97;;;17.20;99.90;;;;;;5076535;28;20445;-86
2021/07/23 05:48:53;;;;;;;9.30;7.60;;;17.30;99.90;;;;;;5076445;28;20453;-86
2021/07/23 05:51:20;;;;;;;9.80;7.20;;;17.30;99.90;;;;;;5076447;28;20492;-86
2021/07/23 05:53:47;;;;;;;9.23;7.57;;;17.50;99.90;;;;;;5076595;28;20447;-86
2021/07/23 05:56:14;;;;;;;11.60;7.03;;;17.60;99.90;;;;;;5076140;28;20484;-86
2021/07/23 05:58:42;;;;;;;13.17;7.07;;;17.70;99.90;;;;;;5076221;28;20433;-86
2021/07/23 06:01:09;;;;;;;10.23;7.60;;;17.80;99.90;;;;;;5076150;28;20460;-85
2021/07/23 06:03:35;;;;;;;9.90;7.83;;;17.90;99.90;;;;;;5076176;28;20455;-85
2021/07/23 06:06:03;;;;;;;9.73;7.10;;;18.00;99.90;;;;;;5075949;28;20531;-86
2021/07/23 06:08:29;;;;;;;10.83;7.90;;;18.10;99.90;;;;;;5076248;28;20456;-86
2021/07/23 06:10:56;;;;;;;10.90;7.20;;;18.30;99.90;;;;;;5076140;28;20488;-87
2021/07/23 06:13:23;;;;;;;9.53;7.53;;;18.50;99.90;;;;;;5076167;28;20832;-86
2021/07/23 06:15:51;;;;;;;11.87;8.43;;;18.60;99.90;;;;;;5076240;28;20453;-87
2021/07/23 06:18:18;;;;;;;13.67;8.43;;;18.60;99.90;;;;;;5076142;28;20460;-87
2021/07/23 06:20:45;;;;;;;10.30;7.80;;;18.80;99.90;;;;;;5075891;28;20465;-86
2021/07/23 06:23:11;;;;;;;11.40;8.73;;;18.90;99.90;;;;;;5076173;28;20448;-87
2021/07/23 06:25:38;;;;;;;11.33;7.77;;;19.00;99.90;;;;;;5075831;28;20421;-87
2021/07/23 06:28:05;;;;;;;10.00;7.50;;;19.10;99.90;;;;;;5076014;28;20440;-87
2021/07/23 06:30:32;;;;;;;9.77;7.23;;;19.30;99.90;;;;;;5075395;28;20492;-87
2021/07/23 06:33:00;;;;;;;10.40;8.10;;;19.40;99.90;;;;;;5076048;28;20440;-87
2021/07/23 06:35:29;;;;;;;10.80;8.10;;;19.60;99.90;;;;;;5075606;28;20453;-87
2021/07/23 06:37:57;;;;;;;10.53;7.87;;;19.60;99.90;;;;;;5075406;28;20490;-87
2021/07/23 06:40:24;;;;;;;11.67;7.93;;;19.70;99.90;;;;;;5075477;28;20968;-87
2021/07/23 06:42:50;;;;;;;13.93;7.80;;;19.70;99.90;;;;;;5076047;28;20449;-87
2021/07/23 06:45:17;;;;;;;13.80;8.53;;;19.80;99.90;;;;;;5075930;28;20455;-87
2021/07/23 06:47:44;;;;;;;11.80;8.07;;;19.90;99.90;;;;;;5076042;28;20444;-87
2021/07/23 06:50:13;;;;;;;17.67;9.70;;;20.10;99.90;;;;;;5075950;28;20477;-87
2021/07/23 06:52:40;;;;;;;13.47;8.20;;;20.20;99.90;;;;;;5075712;28;20448;-88
2021/07/23 06:55:08;;;;;;;13.00;8.10;;;20.40;99.90;;;;;;5075765;28;20449;-88
2021/07/23 06:57:34;;;;;;;12.13;8.60;;;20.50;99.90;;;;;;5075773;28;20559;-88
2021/07/23 07:00:01;;;;;;;9.70;8.70;;;20.70;99.90;;;;;;5075755;28;20476;-88
2021/07/23 07:02:28;;;;;;;10.47;8.40;;;20.80;99.90;;;;;;5075593;28;20482;-88
2021/07/23 07:04:55;;;;;;;14.73;8.80;;;20.80;99.90;;;;;;5075519;28;20449;-88
2021/07/23 07:07:23;;;;;;;12.27;8.70;;;20.90;99.90;;;;;;5075571;28;20440;-88
2021/07/23 07:09:50;;;;;;;12.90;8.10;;;20.90;99.90;;;;;;5074990;28;20449;-87
2021/07/23 07:12:17;;;;;;;12.47;8.17;;;21.00;99.90;;;;;;5075487;28;20498;-85
2021/07/23 07:14:44;;;;;;;12.70;9.40;;;21.20;99.90;;;;;;5074493;28;20445;-85
2021/07/23 07:17:11;;;;;;;12.60;8.80;;;21.30;99.90;;;;;;5074634;28;20818;-85
2021/07/23 07:19:38;;;;;;;11.20;8.40;;;21.40;99.90;;;;;;5074527;28;20464;-84
2021/07/23 07:22:05;;;;;;;10.90;8.17;;;21.50;99.90;;;;;;5074599;28;20805;-85
2021/07/23 07:24:33;;;;;;;13.23;10.50;;;21.50;99.90;;;;;;5074296;28;20454;-85
2021/07/23 07:27:01;;;;;;;11.33;9.10;;;21.60;99.90;;;;;;5074417;28;20448;-85
2021/07/23 07:29:28;;;;;;;12.77;9.30;;;21.60;99.90;;;;;;5073942;28;21018;-84
2021/07/23 07:31:54;;;;;;;14.53;8.53;;;21.70;99.90;;;;;;5074235;28;20487;-83
2021/07/23 07:34:21;;;;;;;13.33;9.07;;;21.80;99.90;;;;;;5074377;28;20455;-85
2021/07/23 07:36:48;;;;;;;11.23;7.97;;;22.10;99.90;;;;;;5074362;28;20436;-86
2021/07/23 07:39:15;;;;;;;10.30;8.73;;;22.20;99.90;;;;;;5074708;28;20464;-88
2021/07/23 07:41:43;;;;;;;11.40;9.00;;;22.20;99.90;;;;;;5075176;28;20429;-89
2021/07/23 07:44:10;;;;;;;10.20;9.10;;;22.10;99.90;;;;;;5074871;28;20454;-85
2021/07/23 07:46:37;;;;;;;11.13;9.20;;;22.20;99.90;;;;;;5073833;28;20424;-86
2021/07/23 07:49:04;;;;;;;9.47;8.47;;;22.30;99.90;;;;;;5074051;28;20462;-85
2021/07/23 07:51:30;;;;;;;11.77;8.27;;;22.60;99.90;;;;;;5074322;28;20705;-85
2021/07/23 07:53:57;;;;;;;9.23;8.33;;;22.70;99.90;;;;;;5073948;28;20435;-84
2021/07/23 07:56:24;;;;;;;12.97;8.33;;;22.80;99.90;;;;;;5074184;28;20206;-84
2021/07/23 07:58:52;;;;;;;9.13;8.07;;;23.10;99.90;;;;;;5073884;28;20206;-88
2021/07/23 08:01:19;;;;;;;11.65;8.88;;;23.40;99.90;;;;;;5074283;28;20204;-87
2021/07/23 08:03:45;;;;;;;9.65;8.65;;;23.80;99.90;;;;;;5074236;28;20198;-85
2021/07/23 08:06:20;;;;;;;9.50;7.93;;;24.20;99.90;;;;;;5073663;28;20243;-87
2021/07/23 08:08:48;;;;;;;12.70;8.48;;;24.60;99.90;;;;;;5073101;28;20263;-85
2021/07/23 08:11:14;;;;;;;10.25;8.75;;;25.00;99.90;;;;;;5073548;28;20292;-85
2021/07/23 08:13:41;;;;;;;9.05;8.13;;;25.20;99.90;;;;;;5073670;28;20202;-85
2021/07/23 08:16:10;;;;;;;11.05;8.10;;;25.60;99.90;;;;;;5073631;28;20677;-85
2021/07/23 08:18:36;;;;;;;10.82;8.23;;;25.70;99.90;;;;;;5073530;28;20209;-85
2021/07/23 08:21:04;;;;;;;9.40;7.18;;;25.80;99.90;;;;;;5073175;28;20583;-85
2021/07/23 08:23:36;;;;;;;14.55;8.88;;;26.10;99.90;;;;;;5073458;28;20207;-86
2021/07/23 08:26:04;;;;;;;10.23;8.73;;;26.20;99.90;;;;;;5073569;28;20182;-85
2021/07/23 08:28:31;;;;;;;10.48;7.70;;;26.00;99.90;;;;;;5073448;28;20205;-84
2021/07/23 08:30:58;;;;;;;11.18;8.38;;;25.90;99.90;;;;;;5073097;28;20226;-84
2021/07/23 08:33:28;;;;;;;9.00;8.10;;;26.00;99.90;;;;;;5073299;28;20217;-84
2021/07/23 08:35:55;;;;;;;8.65;7.80;;;25.80;99.90;;;;;;5074071;28;20692;-84
2021/07/23 08:38:21;;;;;;;10.27;9.25;;;25.70;99.90;;;;;;5078466;28;20205;-84
2021/07/23 08:40:48;;;;;;;9.07;7.30;;;26.00;99.90;;;;;;5073278;28;20218;-83
2021/07/23 08:43:15;;;;;;;10.13;8.43;;;26.00;99.90;;;;;;5073650;28;20209;-83
2021/07/23 08:45:43;;;;;;;12.93;7.85;;;26.10;99.90;;;;;;5073327;28;20186;-83
2021/07/23 08:48:10;;;;;;;9.60;8.60;;;26.10;99.90;;;;;;5072913;28;20202;-83
2021/07/23 08:50:38;;;;;;;9.65;8.45;;;25.80;99.90;;;;;;5073055;28;20233;-84
2021/07/23 08:53:10;;;;;;;14.48;9.25;;;25.60;99.90;;;;;;5072930;28;20220;-83
2021/07/23 08:55:37;;;;;;;9.02;8.13;;;25.40;99.90;;;;;;5073227;28;20213;-83
2021/07/23 08:58:07;;;;;;;9.48;8.43;;;25.50;99.90;;;;;;5073336;28;20584;-87
2021/07/23 09:00:34;;;;;;;9.70;8.55;;;25.50;99.90;;;;;;5073561;28;20634;-87
2021/07/23 09:03:02;;;;;;;10.57;9.57;;;25.50;99.90;;;;;;5072831;28;20692;-83
2021/07/23 09:05:31;;;;;;;9.05;7.93;;;25.50;99.90;;;;;;5072712;28;20296;-83
2021/07/23 09:08:03;;;;;;;9.30;8.45;;;25.70;99.90;;;;;;5072977;28;20205;-83
2021/07/23 09:10:31;;;;;;;9.40;8.40;;;25.70;99.90;;;;;;5072654;28;20591;-83
2021/07/23 09:13:01;;;;;;;11.85;9.13;;;25.90;99.90;;;;;;5072711;28;20547;-84
2021/07/23 09:15:32;;;;;;;9.77;8.77;;;25.90;99.90;;;;;;5073250;28;20244;-87
2021/07/23 09:17:59;;;;;;;13.05;8.95;;;25.80;99.90;;;;;;5073268;28;20282;-86
2021/07/23 09:20:28;;;;;;;10.68;8.93;;;25.90;99.90;;;;;;5075283;28;20224;-86
2021/07/23 09:22:58;;;;;;;10.55;8.18;;;26.00;99.90;;;;;;5076799;28;20199;-87
2021/07/23 09:25:37;;;;;;;10.10;7.90;;;26.00;99.90;;;;;;5077244;28;20202;-87
2021/07/23 09:28:20;;;;;;;9.57;8.63;;;26.20;99.90;;;;;;5077266;28;20211;-86
2021/07/23 09:30:47;;;;;;;9.27;8.38;;;26.30;99.90;;;;;;5076315;28;20259;-86
2021/07/23 09:33:14;;;;;;;11.60;9.10;;;26.30;99.90;;;;;;5076532;28;20665;-85
2021/07/23 09:35:52;;;;;;;9.50;8.60;;;26.40;99.90;;;;;;5076293;28;20757;-87
2021/07/23 09:38:20;;;;;;;9.05;8.10;;;26.20;99.00;;;;;;5076488;28;20711;-88
2021/07/23 09:40:50;;;;;;;8.40;7.60;;;26.30;99.60;;;;;;5076287;28;20222;-87
2021/07/23 09:43:31;;;;;;;8.95;8.05;;;26.50;97.20;;;;;;5076354;28;20202;-87
2021/07/23 09:46:24;;;;;;;8.32;7.13;;;26.50;96.80;;;;;;5076606;28;20217;-86
2021/07/23 09:48:52;;;;;;;9.25;7.88;;;26.60;96.30;;;;;;5076056;28;20197;-85
2021/07/23 09:51:20;;;;;;;10.70;7.90;;;26.90;94.60;;;;;;5076181;28;20263;-85
2021/07/23 09:53:48;;;;;;;8.90;8.10;;;26.90;96.20;;;;;;5075931;28;20281;-85
2021/07/23 09:56:16;;;;;;;9.02;8.07;;;27.20;94.60;;;;;;5076195;28;20208;-86
2021/07/23 09:58:45;;;;;;;8.60;7.82;;;27.20;94.80;;;;;;5076314;28;20212;-86
2021/07/23 10:01:15;;;;;;;9.80;7.65;;;27.30;95.50;;;;;;5076116;28;20205;-85
2021/07/23 10:03:46;;;;;;;9.50;8.70;;;27.20;94.60;;;;;;5075883;28;20210;-86
2021/07/23 10:06:17;;;;;;;8.43;7.63;;;27.20;94.70;;;;;;5075811;28;20182;-85
2021/07/23 10:08:53;;;;;;;10.13;8.30;;;27.30;95.40;;;;;;5076061;28;20190;-85
2021/07/23 10:11:21;;;;;;;8.07;7.38;;;27.60;93.20;;;;;;5075829;28;20228;-88
2021/07/23 10:13:51;;;;;;;8.68;7.78;;;27.90;92.20;;;;;;5080674;28;20263;-87
2021/07/23 10:16:19;;;;;;;8.80;7.93;;;28.10;91.70;;;;;;5076120;28;20651;-87
2021/07/23 10:18:47;;;;;;;8.40;7.60;;;28.10;92.10;;;;;;5075497;28;20209;-87
2021/07/23 10:21:14;;;;;;;8.60;7.80;;;28.30;91.00;;;;;;5075720;28;20264;-86
2021/07/23 10:23:44;;;;;;;11.15;7.57;;;28.50;90.30;;;;;;5075646;28;20198;-85
2021/07/23 10:26:12;;;;;;;8.85;7.28;;;28.50;90.00;;;;;;5075896;28;20201;-85
2021/07/23 10:28:57;;;;;;;8.07;7.28;;;28.40;91.90;;;;;;5075121;28;20245;-86
2021/07/23 10:31:43;;;;;;;8.65;7.75;;;28.50;91.50;;;;;;5075281;28;20301;-85
2021/07/23 10:34:29;;;;;;;9.32;7.22;;;28.50;88.90;;;;;;5075455;28;20255;-85
2021/07/23 10:36:55;;;;;;;7.60;6.57;;;29.10;90.00;;;;;;5075177;28;20244;-85
2021/07/23 10:39:23;;;;;;;8.23;7.43;;;29.70;85.40;;;;;;5075176;28;20234;-85
2021/07/23 10:42:30;;;;;;;8.02;7.22;;;29.60;83.60;;;;;;5075298;28;20228;-85
2021/07/23 10:44:57;;;;;;;8.85;7.95;;;29.20;85.00;;;;;;5075243;28;20250;-85
2021/07/23 10:47:44;;;;;;;8.05;7.35;;;29.60;82.50;;;;;;5075260;28;20202;-85
2021/07/23 10:50:14;;;;;;;9.93;7.20;;;29.80;81.40;;;;;;5075283;28;20229;-84
2021/07/23 10:52:42;;;;;;;9.00;7.88;;;29.80;79.40;;;;;;5075098;28;20253;-83
2021/07/23 10:55:11;;;;;;;10.43;7.93;;;29.70;79.20;;;;;;5074781;28;20692;-85
2021/07/23 10:57:38;;;;;;;9.88;7.40;;;29.50;80.90;;;;;;5074975;28;20202;-86
2021/07/23 11:00:06;;;;;;;9.75;7.45;;;29.50;82.30;;;;;;5074611;28;20714;-86
2021/07/23 11:02:46;;;;;;;8.02;7.22;;;29.30;83.00;;;;;;5074389;28;20201;-83
2021/07/23 11:05:19;;;;;;;7.55;6.88;;;28.90;82.00;;;;;;5074838;28;20269;-83
2021/07/23 11:07:47;;;;;;;10.23;7.85;;;28.50;85.80;;;;;;5074591;28;20715;-84
2021/07/23 11:10:20;;;;;;;8.90;8.00;;;28.10;86.00;;;;;;5074423;28;20233;-83
2021/07/23 11:12:47;;;;;;;8.43;7.63;;;27.70;86.60;;;;;;5074678;28;20252;-83
2021/07/23 11:15:14;;;;;;;8.43;7.45;;;27.40;86.10;;;;;;5074645;28;20206;-84
2021/07/23 11:17:49;;;;;;;8.57;7.72;;;27.40;87.60;;;;;;5075169;28;20285;-87
2021/07/23 11:20:23;;;;;;;9.68;7.55;;;27.30;84.40;;;;;;5075007;28;20229;-88
2021/07/23 11:22:51;;;;;;;11.10;8.13;;;27.40;85.20;;;;;;5074879;28;20193;-84
2021/07/23 11:25:19;;;;;;;8.85;8.02;;;27.20;86.60;;;;;;5074496;28;20206;-84
2021/07/23 11:27:50;;;;;;;8.68;7.78;;;27.20;85.50;;;;;;5074583;28;20233;-82
2021/07/23 11:30:20;;;;;;;8.40;7.60;;;27.20;86.40;;;;;;5074118;28;20244;-85
2021/07/23 11:32:53;;;;;;;8.40;7.57;;;27.10;87.10;;;;;;5074865;28;20225;-89
2021/07/23 11:35:21;;;;;;;9.63;8.18;;;27.40;83.90;;;;;;5074981;28;20548;-88
2021/07/23 11:37:50;;;;;;;8.13;7.43;;;27.50;82.20;;;;;;5074707;28;20213;-87
2021/07/23 11:40:18;;;;;;;8.20;7.40;;;27.40;84.40;;;;;;5074764;28;20221;-88
2021/07/23 11:42:50;;;;;;;9.05;8.15;;;27.20;86.00;;;;;;5073694;28;20624;-88
2021/07/23 11:45:18;;;;;;;9.48;8.38;;;27.20;85.30;;;;;;5074520;28;20251;-86
2021/07/23 11:47:46;;;;;;;8.57;7.72;;;27.00;85.30;;;;;;5074245;28;20213;-86
2021/07/23 11:50:14;;;;;;;9.63;7.97;;;27.10;85.80;;;;;;5074068;28;20271;-87
2021/07/23 11:52:43;;;;;;;9.43;7.80;;;27.10;85.20;;;;;;5074416;28;20228;-84
2021/07/23 11:55:11;;;;;;;8.38;7.55;;;27.20;84.10;;;;;;5073640;28;20669;-82
2021/07/23 11:57:39;;;;;;;7.82;7.13;;;27.20;86.10;;;;;;5073872;28;20205;-84
2021/07/23 12:00:20;;;;;;;8.65;7.78;;;27.20;87.10;;;;;;5074090;28;20291;-86
2021/07/23 12:02:47;;;;;;;8.43;7.50;;;27.30;82.80;;;;;;5074508;28;20182;-87
2021/07/23 12:05:16;;;;;;;8.93;8.02;;;27.40;82.80;;;;;;5079021;28;20198;-83
2021/07/23 12:07:56;;;;;;;8.80;7.90;;;27.40;82.60;;;;;;5074019;28;20202;-83
2021/07/23 12:10:23;;;;;;;11.70;8.40;;;27.30;83.60;;;;;;5073949;28;20226;-84
2021/07/23 12:12:51;;;;;;;7.50;6.80;;;27.20;82.60;;;;;;5073609;28;20218;-84
2021/07/23 12:15:19;;;;;;;8.90;7.60;;;27.10;83.40;;;;;;5074006;28;20206;-87
2021/07/23 12:17:48;;;;;;;8.45;7.65;;;27.10;83.50;;;;;;5073543;28;20685;-88
2021/07/23 12:20:16;;;;;;;8.88;7.97;;;27.10;83.00;;;;;;5073830;28;20229;-86
2021/07/23 12:22:59;;;;;;;9.05;7.97;;;27.00;82.90;;;;;;5073543;28;20205;-85
2021/07/23 12:25:28;;;;;;;8.40;7.47;;;27.00;82.30;;;;;;5073639;28;20182;-84
2021/07/23 12:28:10;;;;;;;7.20;6.45;;;27.00;84.00;;;;;;5073708;28;20610;-84
2021/07/23 12:30:38;;;;;;;7.97;7.18;;;27.00;85.80;;;;;;5072959;28;20246;-84
2021/07/23 12:33:15;;;;;;;8.23;6.68;;;27.00;84.50;;;;;;5073365;28;20222;-84
2021/07/23 12:35:42;;;;;;;7.75;6.95;;;27.00;85.90;;;;;;5073384;28;20202;-82
2021/07/23 12:38:11;;;;;;;8.13;7.32;;;26.90;85.60;;;;;;5073371;28;20620;-84
2021/07/23 12:40:45;;;;;;;9.20;8.30;;;26.90;87.40;;;;;;5072961;28;20734;-83
2021/07/23 12:43:12;;;;;;;8.45;7.57;;;27.00;89.30;;;;;;5073316;28;20197;-84
2021/07/23 12:45:39;;;;;;;8.00;7.05;;;26.90;87.30;;;;;;5073387;28;20190;-83